Time;durP1;ratioP1;P1;durP2;ratioP2;P2;SDS_P1;SDS_P2;PMS_P1;PMS_P2;Temp;Humidity;BMP_temperature;BMP_pressure;BME280_temperature;BME280_humidity;BME280_pressure;Samples;Min_cycle;Max_cycle;Signal;HPM_P1;HPM_P2
2021/10/17 00:00:35;;;;;;;9.65;3.97;;;11.30;92.50;;;;;;5038729;28;20049;-88
2021/10/17 00:03:00;;;;;;;8.10;3.72;;;11.30;92.60;;;;;;5056244;28;20040;-87
2021/10/17 00:05:28;;;;;;;9.38;4.05;;;11.30;92.10;;;;;;5056386;28;20056;-88
2021/10/17 00:07:55;;;;;;;15.80;4.10;;;11.30;92.60;;;;;;5056021;28;20017;-88
2021/10/17 00:10:27;;;;;;;9.00;3.90;;;11.30;92.30;;;;;;5056353;28;20029;-88
2021/10/17 00:12:54;;;;;;;15.45;5.55;;;11.30;92.80;;;;;;5055367;28;20029;-88
2021/10/17 00:15:21;;;;;;;9.10;4.03;;;11.30;92.10;;;;;;5056020;28;20021;-88
2021/10/17 00:17:48;;;;;;;11.18;4.47;;;11.30;91.80;;;;;;5039484;28;20489;-88
2021/10/17 00:20:16;;;;;;;10.30;4.18;;;11.30;91.50;;;;;;5056350;28;20416;-88
2021/10/17 00:22:42;;;;;;;11.73;4.60;;;11.20;91.10;;;;;;5057021;28;20037;-87
2021/10/17 00:25:10;;;;;;;8.15;4.15;;;11.20;91.70;;;;;;5057176;28;20115;-88
2021/10/17 00:27:36;;;;;;;11.65;4.43;;;11.10;91.80;;;;;;5072834;28;20033;-88
2021/10/17 00:30:03;;;;;;;8.93;4.20;;;11.10;92.20;;;;;;5056237;28;20052;-87
2021/10/17 00:32:29;;;;;;;10.80;4.35;;;11.20;91.90;;;;;;5046405;28;20070;-87
2021/10/17 00:34:54;;;;;;;11.40;4.15;;;11.20;91.80;;;;;;5058410;28;20416;-88
2021/10/17 00:37:20;;;;;;;9.30;4.32;;;11.20;92.00;;;;;;5037637;28;20037;-87
2021/10/17 00:39:46;;;;;;;11.60;4.38;;;11.20;92.30;;;;;;5056370;28;20381;-88
2021/10/17 00:42:12;;;;;;;9.68;4.22;;;11.20;92.40;;;;;;5053478;28;20025;-87
2021/10/17 00:44:41;;;;;;;10.65;4.40;;;11.20;92.50;;;;;;5056223;28;20021;-88
2021/10/17 00:47:07;;;;;;;8.85;4.00;;;11.20;92.70;;;;;;5057704;28;20025;-87
2021/10/17 00:49:32;;;;;;;9.38;3.90;;;11.30;92.70;;;;;;5069358;28;20017;-88
2021/10/17 00:51:58;;;;;;;12.50;4.80;;;11.30;92.70;;;;;;5040311;28;20025;-87
2021/10/17 00:54:24;;;;;;;10.73;5.20;;;11.30;92.20;;;;;;5042078;28;20029;-87
2021/10/17 00:56:50;;;;;;;10.23;4.00;;;11.30;92.40;;;;;;5058187;28;20033;-88
2021/10/17 00:59:15;;;;;;;11.85;4.40;;;11.30;92.40;;;;;;5075552;28;20408;-88
2021/10/17 01:01:41;;;;;;;11.10;3.92;;;11.30;92.60;;;;;;5042145;28;20032;-88
2021/10/17 01:04:07;;;;;;;11.45;4.60;;;11.30;92.70;;;;;;5059629;28;20032;-88
2021/10/17 01:06:33;;;;;;;11.80;4.05;;;11.30;92.80;;;;;;5071398;28;20027;-87
2021/10/17 01:08:59;;;;;;;13.40;4.47;;;11.30;92.70;;;;;;5042023;28;20024;-88
2021/10/17 01:11:42;;;;;;;11.30;4.68;;;11.30;92.80;;;;;;5058788;28;20032;-88
2021/10/17 01:14:09;;;;;;;10.48;4.40;;;11.20;92.70;;;;;;5072609;28;20036;-88
2021/10/17 01:16:37;;;;;;;11.82;4.30;;;11.30;92.60;;;;;;5058694;28;20017;-88
2021/10/17 01:19:03;;;;;;;11.05;4.53;;;11.20;92.90;;;;;;5029948;28;20066;-88
2021/10/17 01:21:28;;;;;;;8.90;3.80;;;11.30;93.00;;;;;;5075686;28;20020;-87
2021/10/17 01:23:54;;;;;;;11.32;4.30;;;11.30;93.10;;;;;;5061811;28;20024;-88
2021/10/17 01:26:20;;;;;;;11.63;4.30;;;11.30;93.10;;;;;;5078518;28;20063;-88
2021/10/17 01:28:48;;;;;;;12.18;4.30;;;11.20;92.80;;;;;;5061774;28;20075;-88
2021/10/17 01:31:14;;;;;;;8.02;4.03;;;11.20;93.00;;;;;;5034070;28;20062;-88
2021/10/17 01:33:39;;;;;;;10.70;4.13;;;11.20;92.80;;;;;;5038086;28;20028;-87
2021/10/17 01:36:05;;;;;;;11.30;3.85;;;11.20;93.20;;;;;;5066859;28;20039;-88
2021/10/17 01:38:30;;;;;;;8.85;3.83;;;11.20;93.20;;;;;;5081737;28;20036;-88
2021/10/17 01:40:56;;;;;;;8.57;3.65;;;11.20;93.20;;;;;;5059773;28;20028;-88
2021/10/17 01:43:22;;;;;;;9.07;4.10;;;11.20;93.20;;;;;;5064481;28;20028;-88
2021/10/17 01:45:47;;;;;;;11.15;3.85;;;11.20;93.50;;;;;;5051332;28;20468;-87
2021/10/17 01:48:13;;;;;;;8.55;3.92;;;11.20;93.50;;;;;;5060858;28;20021;-88
2021/10/17 01:50:39;;;;;;;15.38;4.78;;;11.20;93.70;;;;;;5075314;28;20020;-87
2021/10/17 01:53:05;;;;;;;9.57;4.55;;;11.20;93.90;;;;;;5040602;28;20118;-88
2021/10/17 01:55:30;;;;;;;10.50;4.47;;;11.20;94.00;;;;;;5037331;28;20049;-87
2021/10/17 01:57:56;;;;;;;9.02;4.10;;;11.20;93.90;;;;;;5053953;28;20074;-88
2021/10/17 02:00:21;;;;;;;11.65;4.65;;;11.20;93.90;;;;;;5054193;28;20358;-88
2021/10/17 02:02:47;;;;;;;11.95;4.60;;;11.20;93.70;;;;;;5055623;28;20025;-88
2021/10/17 02:05:13;;;;;;;9.80;3.92;;;11.20;93.80;;;;;;5053637;28;20063;-88
2021/10/17 02:07:38;;;;;;;11.45;4.63;;;11.20;93.70;;;;;;5034327;28;20121;-87
2021/10/17 02:10:05;;;;;;;9.48;4.13;;;11.20;93.70;;;;;;5053646;28;20429;-87
2021/10/17 02:12:31;;;;;;;12.00;4.32;;;11.20;93.70;;;;;;5054634;28;20025;-89
2021/10/17 02:14:57;;;;;;;9.68;4.60;;;11.20;93.70;;;;;;5055413;28;20477;-88
2021/10/17 02:17:23;;;;;;;18.58;4.80;;;11.20;93.70;;;;;;5038048;28;20033;-88
2021/10/17 02:19:48;;;;;;;9.57;4.47;;;11.20;93.80;;;;;;5054258;28;20029;-88
2021/10/17 02:22:14;;;;;;;13.57;4.68;;;11.20;94.00;;;;;;5037213;28;20025;-88
2021/10/17 02:24:40;;;;;;;9.43;4.60;;;11.20;94.00;;;;;;5055128;28;20079;-88
2021/10/17 02:27:06;;;;;;;12.07;4.85;;;11.20;94.00;;;;;;5034706;28;20037;-88
2021/10/17 02:29:32;;;;;;;10.10;4.45;;;11.20;94.00;;;;;;5054260;28;20556;-87
2021/10/17 02:31:59;;;;;;;9.45;3.97;;;11.10;94.00;;;;;;5054253;28;20028;-88
2021/10/17 02:34:26;;;;;;;10.88;4.65;;;11.20;94.10;;;;;;5054101;28;20223;-87
2021/10/17 02:36:52;;;;;;;11.23;4.65;;;11.10;94.10;;;;;;5054893;28;20044;-88
2021/10/17 02:39:17;;;;;;;8.13;4.20;;;11.10;94.10;;;;;;5046761;28;20053;-88
2021/10/17 02:41:43;;;;;;;10.07;4.63;;;11.20;94.20;;;;;;5061827;28;20025;-87
2021/10/17 02:44:09;;;;;;;9.52;4.65;;;11.10;93.70;;;;;;5051214;28;20378;-87
2021/10/17 02:46:35;;;;;;;11.90;4.60;;;11.10;93.70;;;;;;5038978;28;20060;-87
2021/10/17 02:49:00;;;;;;;8.75;4.15;;;11.10;93.80;;;;;;5040864;28;20169;-88
2021/10/17 02:51:26;;;;;;;12.13;4.88;;;11.00;94.00;;;;;;5071723;28;20078;-88
2021/10/17 02:53:52;;;;;;;12.38;4.72;;;11.10;93.90;;;;;;5073630;28;20044;-87
2021/10/17 02:56:18;;;;;;;9.73;4.50;;;11.00;94.10;;;;;;5075882;28;20111;-88
2021/10/17 02:58:45;;;;;;;11.85;4.82;;;11.00;94.00;;;;;;5051789;28;20048;-88
2021/10/17 03:01:10;;;;;;;12.90;5.35;;;11.00;94.10;;;;;;5082497;28;20040;-89
2021/10/17 03:03:36;;;;;;;12.63;4.90;;;11.00;94.20;;;;;;5083858;28;20011;-88
2021/10/17 03:06:02;;;;;;;11.18;4.82;;;11.00;94.10;;;;;;5100601;28;20073;-88
2021/10/17 03:08:28;;;;;;;10.20;4.40;;;11.00;94.10;;;;;;5096330;28;20068;-88
2021/10/17 03:10:54;;;;;;;10.27;4.90;;;11.00;94.20;;;;;;5064949;28;20017;-88
2021/10/17 03:13:19;;;;;;;14.40;5.32;;;10.90;94.10;;;;;;5063879;28;20048;-87
2021/10/17 03:15:45;;;;;;;9.88;5.00;;;11.00;94.30;;;;;;5061492;28;20025;-87
2021/10/17 03:18:11;;;;;;;8.23;4.80;;;10.90;94.30;;;;;;5069071;28;20068;-88
2021/10/17 03:20:36;;;;;;;9.50;5.03;;;10.90;94.30;;;;;;5044154;28;20055;-88
2021/10/17 03:23:02;;;;;;;9.57;4.85;;;10.90;94.30;;;;;;5027893;28;20056;-87
2021/10/17 03:25:27;;;;;;;10.80;4.95;;;10.90;94.40;;;;;;5043719;28;20021;-88
2021/10/17 03:27:53;;;;;;;11.25;4.88;;;11.00;94.40;;;;;;5024452;28;20032;-88
2021/10/17 03:30:19;;;;;;;11.55;5.00;;;11.00;94.60;;;;;;5069622;28;20033;-88
2021/10/17 03:32:44;;;;;;;14.70;5.30;;;11.00;94.80;;;;;;5074500;28;20522;-88
2021/10/17 03:35:10;;;;;;;11.70;5.10;;;10.90;94.60;;;;;;5033177;28;20025;-87
2021/10/17 03:37:35;;;;;;;9.35;5.40;;;11.00;94.80;;;;;;5087766;28;20058;-87
2021/10/17 03:40:02;;;;;;;11.02;5.30;;;11.00;94.50;;;;;;5043423;28;20174;-87
2021/10/17 03:42:28;;;;;;;11.93;4.97;;;11.00;94.80;;;;;;5059923;28;20037;-87
2021/10/17 03:44:54;;;;;;;13.00;5.70;;;10.90;94.40;;;;;;5060254;28;20420;-87
2021/10/17 03:47:20;;;;;;;12.57;5.55;;;10.90;94.40;;;;;;5043651;28;20044;-88
2021/10/17 03:49:45;;;;;;;14.55;5.40;;;10.90;94.60;;;;;;5060188;28;20473;-88
2021/10/17 03:52:11;;;;;;;10.43;5.45;;;10.90;94.60;;;;;;5034245;28;20385;-87
2021/10/17 03:54:41;;;;;;;14.13;5.97;;;10.90;95.00;;;;;;5057117;28;20485;-88
2021/10/17 03:57:07;;;;;;;9.82;5.68;;;10.90;94.40;;;;;;5053401;28;20025;-88
2021/10/17 03:59:33;;;;;;;13.73;5.90;;;10.90;93.80;;;;;;5064305;28;20033;-88
2021/10/17 04:01:58;;;;;;;11.52;5.57;;;10.80;93.80;;;;;;5043235;28;20025;-88
2021/10/17 04:04:24;;;;;;;9.77;5.15;;;10.80;94.00;;;;;;5059918;28;20040;-87
2021/10/17 04:06:49;;;;;;;8.13;5.00;;;10.70;94.20;;;;;;5077978;28;20047;-87
2021/10/17 04:09:15;;;;;;;15.93;5.50;;;10.70;94.40;;;;;;5032860;28;20029;-87
2021/10/17 04:11:41;;;;;;;12.07;5.35;;;10.70;94.40;;;;;;5070757;28;20033;-88
2021/10/17 04:14:06;;;;;;;12.25;5.25;;;10.70;94.80;;;;;;5052248;28;20389;-87
2021/10/17 04:16:32;;;;;;;12.00;5.63;;;10.70;94.40;;;;;;5061335;28;20029;-88
2021/10/17 04:18:58;;;;;;;13.65;5.95;;;10.70;94.20;;;;;;5056324;28;20124;-87
2021/10/17 04:21:23;;;;;;;11.43;6.10;;;10.70;94.00;;;;;;5056151;28;20040;-88
2021/10/17 04:23:49;;;;;;;13.68;5.72;;;10.60;94.10;;;;;;5039746;28;20025;-88
2021/10/17 04:26:15;;;;;;;10.15;5.18;;;10.60;93.90;;;;;;5059702;28;20649;-88
2021/10/17 04:28:40;;;;;;;11.10;6.03;;;10.50;93.80;;;;;;5056899;28;20036;-88
2021/10/17 04:31:06;;;;;;;12.40;6.35;;;10.50;93.90;;;;;;5056691;28;20033;-88
2021/10/17 04:33:32;;;;;;;12.02;6.25;;;10.50;93.90;;;;;;5056181;28;20148;-88
2021/10/17 04:35:57;;;;;;;14.55;5.72;;;10.50;93.90;;;;;;5076445;28;20113;-88
2021/10/17 04:38:23;;;;;;;12.20;5.60;;;10.50;94.10;;;;;;5042798;28;20055;-87
2021/10/17 04:40:49;;;;;;;13.13;6.20;;;10.50;94.00;;;;;;5071353;28;20044;-87
2021/10/17 04:43:14;;;;;;;13.60;5.47;;;10.50;93.80;;;;;;5066036;28;20032;-88
2021/10/17 04:45:43;;;;;;;13.18;5.70;;;10.50;93.90;;;;;;5059302;28;20024;-87
2021/10/17 04:48:09;;;;;;;10.60;5.65;;;10.40;93.80;;;;;;5077033;28;20032;-87
2021/10/17 04:50:36;;;;;;;12.90;6.80;;;10.40;93.90;;;;;;5061424;28;20378;-88
2021/10/17 04:53:02;;;;;;;9.63;5.07;;;10.40;94.10;;;;;;5056245;28;20033;-87
2021/10/17 04:55:28;;;;;;;13.07;6.13;;;10.40;94.20;;;;;;5088030;28;20048;-87
2021/10/17 04:57:53;;;;;;;10.20;5.53;;;10.40;94.40;;;;;;5054354;28;20033;-88
2021/10/17 05:00:19;;;;;;;13.57;6.00;;;10.30;93.80;;;;;;5042681;28;20421;-88
2021/10/17 05:02:45;;;;;;;15.95;6.45;;;10.30;94.10;;;;;;5025813;28;20791;-88
2021/10/17 05:05:10;;;;;;;11.70;5.85;;;10.30;94.00;;;;;;5058867;28;20099;-87
2021/10/17 05:07:36;;;;;;;17.23;5.97;;;10.30;94.10;;;;;;5058942;28;20027;-85
2021/10/17 05:10:02;;;;;;;12.07;5.70;;;10.30;94.20;;;;;;5041663;28;20412;-87
2021/10/17 05:12:28;;;;;;;13.20;6.25;;;10.30;94.30;;;;;;5042151;28;20025;-87
2021/10/17 05:14:54;;;;;;;12.88;6.20;;;10.30;94.50;;;;;;5077434;28;20056;-88
2021/10/17 05:17:19;;;;;;;14.65;6.53;;;10.30;94.70;;;;;;5071669;28;20025;-88
2021/10/17 05:19:45;;;;;;;13.32;6.18;;;10.30;94.80;;;;;;5030628;28;20033;-88
2021/10/17 05:22:10;;;;;;;10.50;5.75;;;10.40;94.70;;;;;;5069563;28;20029;-87
2021/10/17 05:24:36;;;;;;;13.88;5.50;;;10.40;94.30;;;;;;5031531;28;20139;-87
2021/10/17 05:27:02;;;;;;;13.38;6.05;;;10.30;93.90;;;;;;5028247;28;20047;-87
2021/10/17 05:29:27;;;;;;;10.32;5.30;;;10.30;94.30;;;;;;5058638;28;20028;-87
2021/10/17 05:31:53;;;;;;;13.23;6.25;;;10.30;94.00;;;;;;5055570;28;20032;-88
2021/10/17 05:34:19;;;;;;;14.10;6.07;;;10.30;94.10;;;;;;5025860;28;20115;-87
2021/10/17 05:36:44;;;;;;;18.63;8.23;;;10.30;94.30;;;;;;5046833;28;20025;-87
2021/10/17 05:39:10;;;;;;;19.10;8.45;;;10.30;93.80;;;;;;5069652;28;20431;-87
2021/10/17 05:41:36;;;;;;;14.98;7.72;;;10.20;93.90;;;;;;5058301;28;20060;-87
2021/10/17 05:44:02;;;;;;;17.15;7.45;;;10.20;94.10;;;;;;5044810;28;20044;-87
2021/10/17 05:46:29;;;;;;;13.38;6.35;;;10.20;94.10;;;;;;5060941;28;20032;-88
2021/10/17 05:48:55;;;;;;;12.20;6.13;;;10.20;94.30;;;;;;5060550;28;20047;-87
2021/10/17 05:51:21;;;;;;;12.95;5.90;;;10.30;94.50;;;;;;5039234;28;20029;-88
2021/10/17 05:53:53;;;;;;;14.30;5.75;;;10.30;94.50;;;;;;5053561;28;20080;-88
2021/10/17 05:56:18;;;;;;;15.82;6.70;;;10.30;94.80;;;;;;5045587;28;20063;-87
2021/10/17 05:58:44;;;;;;;13.15;5.70;;;10.30;94.60;;;;;;5040034;28;20029;-88
2021/10/17 06:01:09;;;;;;;16.88;6.00;;;10.30;94.70;;;;;;5057710;28;20025;-88
2021/10/17 06:03:35;;;;;;;8.75;5.82;;;10.30;94.70;;;;;;5021847;28;20100;-88
2021/10/17 06:06:01;;;;;;;15.27;6.63;;;10.30;94.70;;;;;;5054297;28;20036;-87
2021/10/17 06:08:30;;;;;;;12.23;6.03;;;10.40;94.70;;;;;;5053710;28;20057;-88
2021/10/17 06:10:56;;;;;;;14.15;6.13;;;10.30;94.60;;;;;;5048395;28;20024;-87
2021/10/17 06:13:22;;;;;;;14.43;6.57;;;10.30;94.60;;;;;;5057534;28;20456;-89
2021/10/17 06:15:48;;;;;;;13.57;6.20;;;10.30;94.60;;;;;;5041216;28;20048;-88
2021/10/17 06:18:13;;;;;;;12.40;6.28;;;10.30;94.40;;;;;;5057700;28;20066;-88
2021/10/17 06:20:39;;;;;;;13.35;6.63;;;10.30;94.60;;;;;;5095448;28;20103;-87
2021/10/17 06:23:04;;;;;;;13.90;6.22;;;10.30;94.30;;;;;;5095717;28;20610;-88
2021/10/17 06:25:30;;;;;;;12.43;6.28;;;10.30;94.40;;;;;;5025054;28;20429;-88
2021/10/17 06:27:56;;;;;;;13.80;6.07;;;10.30;94.40;;;;;;5043818;28;20039;-87
2021/10/17 06:30:22;;;;;;;12.40;6.25;;;10.20;94.40;;;;;;5042907;28;20067;-87
2021/10/17 06:32:48;;;;;;;12.18;6.85;;;10.30;94.70;;;;;;5043025;28;20024;-88
2021/10/17 06:35:13;;;;;;;13.50;6.03;;;10.30;94.70;;;;;;5041978;28;20052;-87
2021/10/17 06:37:42;;;;;;;15.05;6.32;;;10.20;94.60;;;;;;5041101;28;20487;-87
2021/10/17 06:40:08;;;;;;;16.10;6.20;;;10.30;94.70;;;;;;5040946;28;20059;-87
2021/10/17 06:42:34;;;;;;;15.02;6.10;;;10.30;94.90;;;;;;5091433;28;20087;-88
2021/10/17 06:45:00;;;;;;;14.63;6.30;;;10.30;95.00;;;;;;5066892;28;20009;-88
2021/10/17 06:47:25;;;;;;;13.50;6.15;;;10.30;95.00;;;;;;5096760;22;20052;-89
2021/10/17 06:49:52;;;;;;;12.32;6.20;;;10.30;94.80;;;;;;5060430;28;20037;-86
2021/10/17 06:52:18;;;;;;;12.93;6.53;;;10.30;94.60;;;;;;5075712;28;20022;-88
2021/10/17 06:54:43;;;;;;;14.63;6.47;;;10.30;94.60;;;;;;5071450;28;20017;-87
2021/10/17 06:57:09;;;;;;;16.45;6.38;;;10.30;94.60;;;;;;5056250;28;20040;-88
2021/10/17 06:59:35;;;;;;;18.10;7.20;;;10.30;94.30;;;;;;5042079;28;20089;-87
2021/10/17 07:02:01;;;;;;;14.73;6.63;;;10.20;94.60;;;;;;5050130;28;20029;-87
2021/10/17 07:04:26;;;;;;;14.70;6.43;;;10.20;94.40;;;;;;5040696;28;20242;-87
2021/10/17 07:06:52;;;;;;;14.80;6.80;;;10.20;93.90;;;;;;5035872;28;20029;-87
2021/10/17 07:09:18;;;;;;;14.80;6.32;;;10.20;94.20;;;;;;5038516;28;20040;-87
2021/10/17 07:11:44;;;;;;;16.15;6.30;;;10.10;94.20;;;;;;5021271;28;20056;-87
2021/10/17 07:14:10;;;;;;;16.95;6.65;;;10.10;93.90;;;;;;5054655;28;20457;-87
2021/10/17 07:16:37;;;;;;;13.25;6.20;;;10.10;94.10;;;;;;5037918;28;20035;-88
2021/10/17 07:19:02;;;;;;;11.30;5.90;;;10.10;94.10;;;;;;5045678;28;20032;-87
2021/10/17 07:21:28;;;;;;;13.60;6.00;;;10.20;94.40;;;;;;5045458;28;20028;-87
2021/10/17 07:23:54;;;;;;;11.18;6.15;;;10.20;94.60;;;;;;5050838;28;20026;-88
2021/10/17 07:26:19;;;;;;;11.20;6.55;;;10.20;94.10;;;;;;5034761;28;20394;-87
2021/10/17 07:28:45;;;;;;;11.93;6.38;;;10.20;94.30;;;;;;5053899;28;20132;-87
2021/10/17 07:31:11;;;;;;;11.70;6.60;;;10.20;94.60;;;;;;5037159;28;20033;-88
2021/10/17 07:33:37;;;;;;;11.30;5.70;;;10.20;94.60;;;;;;5016814;28;20022;-87
2021/10/17 07:36:03;;;;;;;14.07;6.38;;;10.30;94.60;;;;;;5020245;28;20469;-88
2021/10/17 07:38:32;;;;;;;14.73;6.45;;;10.30;94.60;;;;;;5020693;28;20025;-87
2021/10/17 07:40:57;;;;;;;12.45;5.70;;;10.30;94.60;;;;;;5036499;28;20064;-87
2021/10/17 07:43:23;;;;;;;15.25;6.28;;;10.30;94.50;;;;;;5020014;28;20033;-87
2021/10/17 07:45:49;;;;;;;11.70;5.80;;;10.40;94.70;;;;;;5003741;28;20018;-87
2021/10/17 07:48:15;;;;;;;11.05;5.53;;;10.40;94.80;;;;;;5050835;28;20053;-87
2021/10/17 07:50:41;;;;;;;12.18;5.85;;;10.50;94.90;;;;;;5042961;28;20025;-87
2021/10/17 07:53:06;;;;;;;13.65;5.50;;;10.50;95.00;;;;;;5029150;28;20029;-88
2021/10/17 07:55:32;;;;;;;13.85;5.88;;;10.50;94.90;;;;;;5037772;28;20032;-89
2021/10/17 07:57:58;;;;;;;12.13;5.90;;;10.50;95.00;;;;;;5030867;28;20029;-87
2021/10/17 08:00:26;;;;;;;11.82;6.82;;;10.50;94.70;;;;;;5038019;28;20025;-87
2021/10/17 08:02:52;;;;;;;10.93;5.70;;;10.60;94.80;;;;;;5044437;28;20028;-88
2021/10/17 08:05:18;;;;;;;11.15;5.82;;;10.60;95.00;;;;;;5057091;28;20523;-88
2021/10/17 08:07:44;;;;;;;14.38;5.70;;;10.60;94.90;;;;;;5056245;28;20104;-87
2021/10/17 08:10:10;;;;;;;11.10;5.65;;;10.70;95.00;;;;;;5033372;28;20481;-88
2021/10/17 08:12:37;;;;;;;15.18;5.88;;;10.70;95.10;;;;;;5027024;28;20036;-87
2021/10/17 08:15:04;;;;;;;13.23;6.40;;;10.70;94.70;;;;;;5036367;28;20116;-87
2021/10/17 08:17:29;;;;;;;11.38;5.97;;;10.70;94.90;;;;;;5037193;28;20090;-88
2021/10/17 08:19:55;;;;;;;13.50;6.40;;;10.80;95.00;;;;;;5050287;28;20065;-88
2021/10/17 08:22:21;;;;;;;13.65;6.55;;;10.80;94.50;;;;;;5016759;28;20462;-88
2021/10/17 08:24:47;;;;;;;15.23;6.55;;;10.80;94.70;;;;;;5028597;28;20030;-88
2021/10/17 08:27:13;;;;;;;14.13;6.88;;;10.80;93.80;;;;;;5056311;28;20039;-87
2021/10/17 08:29:39;;;;;;;12.50;5.82;;;10.90;94.30;;;;;;5029490;28;20029;-88
2021/10/17 08:32:05;;;;;;;10.40;5.80;;;10.90;94.40;;;;;;5037745;28;20029;-88
2021/10/17 08:34:31;;;;;;;13.93;5.82;;;10.90;94.50;;;;;;5037129;28;20050;-88
2021/10/17 08:36:56;;;;;;;15.73;6.40;;;10.90;94.40;;;;;;5033874;28;20037;-88
2021/10/17 08:39:22;;;;;;;13.02;6.43;;;10.90;93.80;;;;;;5019354;28;20105;-88
2021/10/17 08:41:48;;;;;;;12.68;5.97;;;11.00;94.00;;;;;;5048711;28;20068;-88
2021/10/17 08:44:15;;;;;;;14.63;6.25;;;11.00;94.20;;;;;;5021165;28;20026;-87
2021/10/17 08:46:43;;;;;;;11.40;6.00;;;11.00;94.30;;;;;;5033041;28;20056;-87
2021/10/17 08:49:09;;;;;;;14.60;6.53;;;11.00;93.90;;;;;;5042627;28;21433;-88
2021/10/17 08:51:35;;;;;;;13.52;6.30;;;11.10;94.30;;;;;;5039671;28;20040;-87
2021/10/17 08:54:02;;;;;;;14.40;6.72;;;11.10;94.10;;;;;;5052823;28;20024;-88
2021/10/17 08:56:28;;;;;;;11.93;6.07;;;11.20;94.70;;;;;;5039065;28;20463;-87
2021/10/17 08:58:54;;;;;;;12.50;6.13;;;11.20;93.90;;;;;;5012391;28;20030;-87
2021/10/17 09:01:19;;;;;;;14.70;6.45;;;11.20;94.00;;;;;;5041263;28;20024;-87
2021/10/17 09:04:02;;;;;;;15.80;6.40;;;11.20;93.90;;;;;;5031864;28;20029;-87
2021/10/17 09:06:33;;;;;;;12.88;5.82;;;11.30;93.60;;;;;;5038340;28;20021;-88
2021/10/17 09:09:06;;;;;;;16.42;6.82;;;11.30;93.60;;;;;;5048285;28;20021;-87
2021/10/17 09:11:41;;;;;;;11.45;6.00;;;11.30;93.80;;;;;;5032811;28;20482;-88
2021/10/17 09:14:09;;;;;;;11.88;5.93;;;11.40;94.00;;;;;;5018831;28;20029;-88
2021/10/17 09:16:37;;;;;;;14.40;5.75;;;11.40;94.10;;;;;;5034493;28;20098;-87
2021/10/17 09:19:21;;;;;;;11.07;6.22;;;11.40;93.10;;;;;;5035283;28;20516;-87
2021/10/17 09:22:04;;;;;;;16.05;6.93;;;11.40;93.50;;;;;;5038610;28;20124;-88
2021/10/17 09:24:34;;;;;;;12.10;6.50;;;11.50;93.10;;;;;;5038375;28;20032;-88
2021/10/17 09:27:07;;;;;;;14.80;6.80;;;11.50;93.90;;;;;;5053307;28;20028;-88
2021/10/17 09:29:34;;;;;;;12.55;6.70;;;11.50;93.30;;;;;;5045947;28;20025;-87
2021/10/17 09:31:59;;;;;;;12.60;6.32;;;11.60;92.80;;;;;;5055705;28;20088;-87
2021/10/17 09:34:29;;;;;;;12.30;6.63;;;11.60;93.30;;;;;;5021395;28;20038;-87
2021/10/17 09:37:12;;;;;;;13.77;5.65;;;11.70;93.80;;;;;;5037794;28;20052;-88
2021/10/17 09:39:45;;;;;;;10.38;5.93;;;11.70;93.50;;;;;;5047925;28;20045;-88
2021/10/17 09:42:19;;;;;;;11.15;6.60;;;11.80;92.40;;;;;;5025047;28;20122;-87
2021/10/17 09:44:44;;;;;;;9.82;6.47;;;11.80;93.30;;;;;;5021573;28;20021;-87
2021/10/17 09:47:11;;;;;;;14.30;6.63;;;11.90;93.60;;;;;;4998030;28;20112;-88
2021/10/17 09:49:37;;;;;;;13.52;7.63;;;11.90;93.10;;;;;;5026478;28;20108;-87
2021/10/17 09:52:22;;;;;;;16.65;6.82;;;11.90;92.90;;;;;;5014898;28;20062;-88
2021/10/17 09:54:51;;;;;;;11.43;6.97;;;12.00;92.80;;;;;;4999226;28;20034;-87
2021/10/17 09:57:18;;;;;;;15.07;7.30;;;12.00;92.80;;;;;;5034658;28;20021;-88
2021/10/17 09:59:43;;;;;;;21.70;8.05;;;12.10;93.40;;;;;;5034681;28;20026;-87
2021/10/17 10:02:11;;;;;;;12.88;6.80;;;12.10;92.10;;;;;;5049391;28;20026;-88
2021/10/17 10:04:44;;;;;;;12.23;6.57;;;12.10;91.90;;;;;;5018251;28;20038;-88
2021/10/17 10:07:15;;;;;;;13.20;7.03;;;12.10;92.90;;;;;;5046275;28;20061;-86
2021/10/17 10:09:47;;;;;;;15.50;6.95;;;12.20;93.00;;;;;;5034538;28;20080;-86
2021/10/17 10:12:16;;;;;;;16.67;6.38;;;12.20;92.10;;;;;;5018297;28;20029;-86
2021/10/17 10:14:43;;;;;;;11.18;6.40;;;12.30;92.90;;;;;;5017926;28;20478;-86
2021/10/17 10:17:09;;;;;;;12.25;6.60;;;12.30;93.00;;;;;;5031491;28;20492;-87
2021/10/17 10:19:36;;;;;;;23.90;7.45;;;12.30;91.40;;;;;;5034778;28;20032;-86
2021/10/17 10:22:02;;;;;;;9.68;5.93;;;12.40;91.40;;;;;;5037346;28;20075;-86
2021/10/17 10:24:31;;;;;;;12.13;6.07;;;12.40;91.50;;;;;;5066057;28;20013;-87
2021/10/17 10:26:58;;;;;;;12.23;6.18;;;12.40;90.90;;;;;;5070555;28;20009;-88
2021/10/17 10:29:26;;;;;;;15.00;6.80;;;12.50;91.40;;;;;;5057517;28;20022;-86
2021/10/17 10:31:57;;;;;;;14.75;5.97;;;12.50;91.60;;;;;;5057589;28;20017;-91
2021/10/17 10:34:32;;;;;;;11.77;6.07;;;12.50;90.80;;;;;;5056878;28;20109;-87
2021/10/17 10:37:30;;;;;;;14.52;6.35;;;12.60;91.50;;;;;;5056092;28;20034;-87
2021/10/17 10:40:05;;;;;;;13.20;6.15;;;12.60;91.10;;;;;;5065338;28;20021;-87
2021/10/17 10:42:34;;;;;;;13.32;6.30;;;12.70;90.20;;;;;;5053972;28;20030;-87
2021/10/17 10:45:19;;;;;;;13.90;7.35;;;12.70;90.70;;;;;;5034813;28;20053;-86
2021/10/17 10:47:47;;;;;;;11.88;6.38;;;12.70;90.00;;;;;;5061175;28;20069;-86
2021/10/17 10:50:14;;;;;;;11.82;5.65;;;12.70;90.50;;;;;;5066777;28;20082;-87
2021/10/17 10:52:43;;;;;;;12.10;6.10;;;12.80;91.00;;;;;;5057690;28;20104;-87
2021/10/17 10:55:11;;;;;;;12.82;6.15;;;12.80;90.70;;;;;;5065125;28;20082;-87
2021/10/17 10:57:40;;;;;;;13.45;6.45;;;12.90;90.40;;;;;;5042544;28;20064;-87
2021/10/17 11:00:15;;;;;;;11.52;5.95;;;12.90;90.50;;;;;;5047275;28;20457;-86
2021/10/17 11:03:11;;;;;;;12.60;6.57;;;12.90;90.90;;;;;;5036408;28;20615;-87
2021/10/17 11:05:37;;;;;;;11.10;6.22;;;13.00;91.00;;;;;;5067655;28;20012;-88
2021/10/17 11:08:14;;;;;;;10.38;6.50;;;13.00;91.40;;;;;;5056079;28;20033;-88
2021/10/17 11:10:45;;;;;;;15.85;6.93;;;13.10;91.10;;;;;;5074961;28;20020;-89
2021/10/17 11:13:24;;;;;;;;;;;13.10;91.00;;;;;;5042247;28;20025;-88
2021/10/17 11:15:50;;;;;;;13.35;6.28;;;13.10;90.10;;;;;;5036942;28;19909;-87
2021/10/17 11:18:15;;;;;;;10.20;5.93;;;13.20;91.00;;;;;;5039150;28;20047;-88
2021/10/17 11:20:43;;;;;;;15.35;7.45;;;13.20;91.50;;;;;;5054848;28;20029;-87
2021/10/17 11:23:18;;;;;;;10.38;7.07;;;13.30;91.20;;;;;;5041686;28;20497;-88
2021/10/17 11:25:52;;;;;;;12.27;6.20;;;13.30;90.70;;;;;;5044114;28;20024;-87
2021/10/17 11:28:17;;;;;;;15.50;6.97;;;13.40;90.40;;;;;;5071390;28;20035;-88
2021/10/17 11:30:43;;;;;;;8.73;5.50;;;13.40;90.20;;;;;;5039347;28;20021;-88
2021/10/17 11:33:23;;;;;;;10.73;5.47;;;13.50;90.20;;;;;;5030678;28;20041;-88
2021/10/17 11:35:49;;;;;;;8.40;5.20;;;13.50;89.50;;;;;;5039710;28;20037;-88
2021/10/17 11:38:18;;;;;;;9.48;5.35;;;13.60;90.00;;;;;;5006494;28;20326;-87
2021/10/17 11:40:45;;;;;;;10.32;5.70;;;13.60;89.70;;;;;;5040917;28;20057;-88
2021/10/17 11:43:11;;;;;;;10.02;5.45;;;13.70;88.10;;;;;;5040203;28;20362;-88
2021/10/17 11:45:42;;;;;;;10.43;4.88;;;13.80;89.30;;;;;;5042196;28;20033;-88
2021/10/17 11:48:11;;;;;;;;;;;13.80;88.90;;;;;;5062631;28;20536;-87
2021/10/17 11:50:46;;;;;;;9.43;4.43;;;13.90;85.00;;;;;;5042200;28;19905;-87
2021/10/17 11:53:14;;;;;;;11.18;4.97;;;13.90;86.50;;;;;;5046356;28;20468;-89
2021/10/17 11:55:52;;;;;;;9.82;4.50;;;14.00;87.30;;;;;;5031315;28;20037;-88
2021/10/17 11:58:23;;;;;;;9.65;4.88;;;14.00;87.00;;;;;;5044471;28;20029;-87
2021/10/17 12:00:55;;;;;;;9.07;4.75;;;14.00;88.30;;;;;;5052112;28;20475;-87
2021/10/17 12:03:22;;;;;;;12.95;5.05;;;14.10;86.90;;;;;;5060886;28;20036;-88
2021/10/17 12:05:50;;;;;;;9.32;4.43;;;14.20;85.80;;;;;;5061840;28;20037;-88
2021/10/17 12:08:23;;;;;;;9.95;4.03;;;14.30;87.30;;;;;;5044528;28;20029;-88
2021/10/17 12:11:18;;;;;;;8.88;4.53;;;14.30;87.20;;;;;;5068117;28;20106;-87
2021/10/17 12:13:55;;;;;;;7.23;4.00;;;14.40;84.90;;;;;;5043300;28;20021;-90
2021/10/17 12:16:22;;;;;;;7.88;4.50;;;14.40;86.60;;;;;;5056793;28;20295;-87
2021/10/17 12:18:59;;;;;;;9.75;4.43;;;14.50;85.90;;;;;;5056579;28;20017;-87
2021/10/17 12:21:28;;;;;;;7.68;4.07;;;14.50;81.60;;;;;;5039060;28;20122;-88
2021/10/17 12:23:55;;;;;;;9.52;4.30;;;14.50;83.00;;;;;;5056288;28;20029;-87
2021/10/17 12:26:24;;;;;;;8.52;3.90;;;14.50;84.20;;;;;;5026987;28;20041;-88
2021/10/17 12:29:01;;;;;;;8.18;3.67;;;14.50;84.60;;;;;;5053315;28;20017;-88
2021/10/17 12:31:31;;;;;;;7.45;3.95;;;14.50;83.80;;;;;;5038025;28;20025;-88
2021/10/17 12:33:59;;;;;;;8.90;4.43;;;14.50;83.30;;;;;;5021717;28;20064;-88
2021/10/17 12:36:26;;;;;;;8.70;3.65;;;14.50;81.30;;;;;;5046077;28;20195;-88
2021/10/17 12:38:59;;;;;;;9.07;4.40;;;14.50;82.50;;;;;;5040531;28;20469;-88
2021/10/17 12:41:28;;;;;;;8.48;3.80;;;14.50;81.80;;;;;;5058643;28;20415;-87